createdAt,value
2018-12-19T00:00:50.570Z,78.68
2018-12-19T00:01:50.533Z,77.95
2018-12-19T00:02:50.519Z,78.47
2018-12-19T00:03:50.552Z,78.58
2018-12-19T00:04:50.496Z,78.78
2018-12-19T00:05:50.519Z,77.95
2018-12-19T00:06:50.475Z,78.06
2018-12-19T00:07:50.465Z,79.10
2018-12-19T00:08:50.470Z,78.78
2018-12-19T00:09:50.443Z,78.06
2018-12-19T00:10:50.464Z,77.75
2018-12-19T00:11:50.419Z,77.85
2018-12-19T00:12:50.408Z,76.95
2018-12-19T00:13:50.398Z,77.58
2018-12-19T00:14:50.388Z,77.78
2018-12-19T00:15:50.399Z,78.51
2018-12-19T00:16:50.416Z,78.41
2018-12-19T00:17:50.367Z,78.09
2018-12-19T00:18:50.343Z,78.09
2018-12-19T00:19:50.330Z,77.68
2018-12-19T00:20:50.344Z,77.89
2018-12-19T00:21:50.312Z,78.78
2018-12-19T00:22:50.299Z,77.75
2018-12-19T00:23:50.314Z,78.68
2018-12-19T00:24:50.278Z,76.40
2018-12-19T00:25:50.288Z,77.02
2018-12-19T00:26:50.252Z,76.71
2018-12-19T00:27:50.244Z,77.33
2018-12-19T00:28:50.233Z,76.61
2018-12-19T00:29:50.241Z,77.02
2018-12-19T00:30:50.236Z,77.75
2018-12-19T00:31:50.197Z,77.44
2018-12-19T00:32:50.189Z,77.75
2018-12-19T00:33:50.176Z,77.02
2018-12-19T00:34:50.166Z,77.75
2018-12-19T00:35:50.215Z,78.06
2018-12-19T00:36:50.142Z,77.64
2018-12-19T00:37:50.132Z,77.23
2018-12-19T00:38:50.124Z,77.75
2018-12-19T00:39:50.108Z,77.54
2018-12-19T00:40:50.120Z,77.61
2018-12-19T00:41:50.095Z,77.33
2018-12-19T00:42:50.076Z,76.92
2018-12-19T00:43:50.063Z,76.67
2018-12-19T00:44:50.054Z,75.67
2018-12-19T00:45:50.069Z,76.40
2018-12-19T00:46:50.032Z,76.40
2018-12-19T00:47:50.034Z,77.33
2018-12-19T00:48:50.009Z,76.19
2018-12-19T00:49:49.999Z,75.36
2018-12-19T00:50:50.017Z,75.98
2018-12-19T00:51:49.976Z,75.98
2018-12-19T00:52:49.969Z,75.43
2018-12-19T00:53:49.977Z,75.26
2018-12-19T00:54:49.943Z,75.84
2018-12-19T00:55:49.955Z,76.19
2018-12-19T00:56:49.920Z,75.63
2018-12-19T00:57:49.914Z,75.43
2018-12-19T00:58:49.900Z,76.36
2018-12-19T00:59:49.894Z,76.09
2018-12-19T01:00:49.903Z,76.26
2018-12-19T01:01:49.867Z,75.98
2018-12-19T01:02:49.854Z,77.64
2018-12-19T01:03:49.842Z,77.33
2018-12-19T01:04:49.834Z,76.19
2018-12-19T01:05:49.872Z,77.02
2018-12-19T01:06:49.809Z,76.09
2018-12-19T01:07:49.797Z,76.40
2018-12-19T01:08:49.786Z,77.02
2018-12-19T01:09:49.776Z,75.67
2018-12-19T01:10:49.791Z,76.92
2018-12-19T01:11:49.767Z,76.61
2018-12-19T01:12:49.744Z,76.40
2018-12-19T01:13:49.731Z,76.81
2018-12-19T01:14:49.720Z,75.98
2018-12-19T01:15:49.733Z,76.95
2018-12-19T01:16:49.708Z,76.29
2018-12-19T01:17:49.699Z,76.81
2018-12-19T01:18:49.676Z,78.16
2018-12-19T01:19:49.667Z,75.88
2018-12-19T01:20:49.679Z,75.81
2018-12-19T01:21:49.651Z,76.75
2018-12-19T01:22:49.636Z,76.50
2018-12-19T01:23:49.638Z,76.61
2018-12-19T01:24:49.609Z,77.12
2018-12-19T01:25:49.622Z,77.75
2018-12-19T01:26:49.588Z,75.88
2018-12-19T01:27:49.578Z,75.88
2018-12-19T01:28:49.564Z,75.57
2018-12-19T01:29:49.572Z,76.61
2018-12-19T01:30:49.580Z,76.81
2018-12-19T01:31:49.534Z,76.12
2018-12-19T01:32:49.521Z,76.12
2018-12-19T01:33:49.509Z,76.12
2018-12-19T01:34:49.501Z,76.19
2018-12-19T01:35:49.510Z,76.95
2018-12-19T01:36:49.501Z,76.12
2018-12-19T01:37:49.464Z,77.44
2018-12-19T01:38:49.456Z,76.92
2018-12-19T01:39:49.445Z,77.02
2018-12-19T01:40:49.438Z,77.33
2018-12-19T01:41:49.476Z,76.61
2018-12-19T01:42:49.425Z,78.68
2018-12-19T01:43:49.396Z,78.47
2018-12-19T01:44:49.386Z,77.54
2018-12-19T01:45:49.377Z,76.98
2018-12-19T01:46:49.392Z,77.23
2018-12-19T01:47:49.385Z,76.61
2018-12-19T01:48:49.344Z,77.12
2018-12-19T01:49:49.330Z,77.71
2018-12-19T01:50:49.322Z,76.78
2018-12-19T01:51:49.335Z,76.88
2018-12-19T01:52:49.298Z,77.71
2018-12-19T01:53:49.316Z,76.57
2018-12-19T01:54:49.275Z,75.95
2018-12-19T01:55:49.264Z,76.71
2018-12-19T01:56:49.280Z,76.46
2018-12-19T01:57:49.250Z,77.29
2018-12-19T01:58:49.229Z,76.36
2018-12-19T01:59:49.247Z,77.71
2018-12-19T02:00:49.209Z,78.12
2018-12-19T02:01:49.220Z,77.40
2018-12-19T02:02:49.186Z,77.71
2018-12-19T02:03:49.176Z,77.09
2018-12-19T02:04:49.164Z,77.50
2018-12-19T02:05:49.173Z,76.57
2018-12-19T02:06:49.165Z,76.98
2018-12-19T02:07:49.130Z,77.81
2018-12-19T02:08:49.118Z,78.44
2018-12-19T02:09:49.107Z,76.84
2018-12-19T02:10:49.098Z,77.57
2018-12-19T02:11:49.126Z,76.36
2018-12-19T02:12:49.076Z,77.19
2018-12-19T02:13:49.063Z,77.88
2018-12-19T02:14:49.054Z,77.47
2018-12-19T02:15:49.042Z,76.95
2018-12-19T02:16:49.055Z,77.26
2018-12-19T02:17:49.030Z,76.84
2018-12-19T02:18:49.017Z,76.74
2018-12-19T02:19:48.998Z,76.43
2018-12-19T02:20:48.986Z,76.43
2018-12-19T02:21:49.015Z,76.23
2018-12-19T02:22:48.963Z,75.84
2018-12-19T02:23:48.961Z,77.57
2018-12-19T02:24:48.951Z,76.64
2018-12-19T02:25:48.931Z,76.64
2018-12-19T02:26:48.948Z,76.43
2018-12-19T02:27:48.908Z,76.84
2018-12-19T02:28:48.900Z,76.74
2018-12-19T02:29:48.900Z,76.84
2018-12-19T02:30:48.880Z,76.32
2018-12-19T02:31:48.889Z,76.74
2018-12-19T02:32:48.864Z,76.12
2018-12-19T02:33:48.842Z,76.26
2018-12-19T02:34:48.832Z,77.26
2018-12-19T02:35:48.835Z,77.57
2018-12-19T02:36:48.834Z,77.05
2018-12-19T02:37:48.803Z,76.12
2018-12-19T02:38:48.790Z,75.71
2018-12-19T02:39:48.777Z,76.32
2018-12-19T02:40:48.765Z,77.36
2018-12-19T02:41:48.794Z,77.12
2018-12-19T02:42:48.743Z,76.71
2018-12-19T02:43:48.737Z,75.36
2018-12-19T02:44:48.732Z,76.91
2018-12-19T02:45:48.713Z,76.29
2018-12-19T02:46:48.726Z,75.36
2018-12-19T02:47:48.701Z,76.40
2018-12-19T02:48:48.676Z,76.29
2018-12-19T02:49:48.669Z,75.36
2018-12-19T02:50:48.660Z,75.29
2018-12-19T02:51:48.669Z,76.12
2018-12-19T02:52:48.632Z,76.12
2018-12-19T02:53:48.649Z,77.47
2018-12-19T02:54:48.608Z,76.12
2018-12-19T02:55:48.607Z,76.61
2018-12-19T02:56:48.614Z,75.88
2018-12-19T02:57:48.583Z,76.71
2018-12-19T02:58:48.569Z,75.67
2018-12-19T02:59:48.569Z,75.88
2018-12-19T03:00:48.543Z,76.61
2018-12-19T03:01:48.559Z,75.46
2018-12-19T03:02:48.530Z,77.05
2018-12-19T03:03:48.513Z,76.23
2018-12-19T03:04:48.500Z,76.53
2018-12-19T03:05:48.500Z,75.50
2018-12-19T03:06:48.505Z,77.98
2018-12-19T03:07:48.473Z,76.53
2018-12-19T03:08:48.455Z,76.81
2018-12-19T03:09:48.443Z,75.67
2018-12-19T03:10:48.448Z,76.32
2018-12-19T03:11:48.450Z,77.64
2018-12-19T03:12:48.431Z,76.50
2018-12-19T03:13:48.413Z,76.81
2018-12-19T03:14:48.400Z,76.19
2018-12-19T03:15:48.384Z,75.57
2018-12-19T03:16:48.395Z,75.46
2018-12-19T03:17:48.362Z,76.29
2018-12-19T03:18:48.357Z,76.29
2018-12-19T03:19:48.333Z,77.53
2018-12-19T03:20:48.400Z,76.50
2018-12-19T03:21:48.334Z,75.57
2018-12-19T03:22:48.305Z,75.36
2018-12-19T03:23:48.289Z,76.78
2018-12-19T03:24:48.291Z,75.74
2018-12-19T03:25:48.269Z,75.98
2018-12-19T03:26:48.284Z,75.78
2018-12-19T03:27:48.243Z,77.33
2018-12-19T03:28:48.241Z,75.36
2018-12-19T03:29:48.224Z,75.46
2018-12-19T03:30:48.251Z,76.40
2018-12-19T03:31:48.227Z,75.15
2018-12-19T03:32:48.194Z,76.50
2018-12-19T03:33:48.177Z,76.71
2018-12-19T03:34:48.169Z,76.91
2018-12-19T03:35:48.158Z,77.12
2018-12-19T03:36:48.206Z,76.71
2018-12-19T03:37:48.137Z,76.91
2018-12-19T03:38:48.123Z,76.71
2018-12-19T03:39:50.419Z,75.63
2018-12-19T03:40:48.107Z,76.71
2018-12-19T03:41:48.102Z,77.53
2018-12-19T03:42:48.114Z,76.81
2018-12-19T03:43:48.068Z,77.12
2018-12-19T03:44:48.059Z,76.26
2018-12-19T03:45:48.048Z,76.88
2018-12-19T03:46:48.041Z,76.57
2018-12-19T03:47:48.046Z,74.71
2018-12-19T03:48:48.042Z,75.53
2018-12-19T03:49:48.000Z,75.12
2018-12-19T03:50:47.988Z,75.95
2018-12-19T03:51:47.983Z,76.43
2018-12-19T03:52:47.993Z,75.70
2018-12-19T03:53:47.960Z,75.40
2018-12-19T03:54:47.968Z,75.53
2018-12-19T03:55:47.935Z,75.53
2018-12-19T03:56:47.926Z,77.19
2018-12-19T03:57:47.940Z,76.78
2018-12-19T03:58:47.903Z,75.70
2018-12-19T03:59:47.891Z,75.32
2018-12-19T04:00:47.912Z,75.43
2018-12-19T04:01:47.870Z,76.12
2018-12-19T04:02:47.883Z,76.46
2018-12-19T04:03:47.847Z,76.46
2018-12-19T04:04:47.837Z,74.40
2018-12-19T04:05:47.827Z,76.46
2018-12-19T04:06:47.837Z,75.22
2018-12-19T04:07:47.830Z,75.78
2018-12-19T04:08:47.791Z,75.98
2018-12-19T04:09:47.794Z,75.43
2018-12-19T04:10:47.777Z,75.67
2018-12-19T04:11:47.761Z,76.09
2018-12-19T04:12:47.790Z,77.22
2018-12-19T04:13:47.738Z,76.46
2018-12-19T04:14:47.726Z,75.57
2018-12-19T04:15:47.726Z,75.88
2018-12-19T04:16:47.713Z,76.98
2018-12-19T04:17:47.720Z,78.47
2018-12-19T04:18:47.703Z,78.64
2018-12-19T04:19:47.674Z,79.05
2018-12-19T04:20:47.673Z,78.53
2018-12-19T04:21:47.649Z,79.16
2018-12-19T04:22:47.666Z,79.40
2018-12-19T04:23:47.632Z,79.50
2018-12-19T04:24:47.638Z,79.54
2018-12-19T04:25:47.607Z,81.92
2018-12-19T04:26:47.600Z,82.54
2018-12-19T04:27:47.611Z,82.03
2018-12-19T04:28:47.575Z,82.27
2018-12-19T04:29:47.563Z,82.37
2018-12-19T04:30:47.566Z,83.41
2018-12-19T04:31:47.542Z,84.03
2018-12-19T04:32:47.553Z,84.55
2018-12-19T04:33:47.518Z,85.17
2018-12-19T04:34:47.514Z,84.96
2018-12-19T04:35:47.502Z,85.94
2018-12-19T04:36:47.496Z,86.55
2018-12-19T04:37:47.497Z,86.49
2018-12-19T04:38:47.464Z,86.76
2018-12-19T04:39:47.462Z,86.66
2018-12-19T04:40:47.446Z,87.38
2018-12-19T04:41:47.433Z,86.87
2018-12-19T04:42:47.455Z,87.38
2018-12-19T04:43:47.409Z,88.01
2018-12-19T04:44:47.396Z,87.45
2018-12-19T04:45:47.390Z,87.55
2018-12-19T04:46:47.377Z,87.76
2018-12-19T04:47:47.389Z,87.24
2018-12-19T04:48:47.365Z,88.90
2018-12-19T04:49:47.343Z,87.04
2018-12-19T04:50:47.332Z,87.66
2018-12-19T04:51:47.351Z,86.83
2018-12-19T04:52:47.332Z,87.24
2018-12-19T04:53:47.297Z,87.59
2018-12-19T04:54:47.295Z,88.69
2018-12-19T04:55:47.275Z,87.49
2018-12-19T04:56:47.266Z,88.63
2018-12-19T04:57:47.275Z,87.28
2018-12-19T04:58:47.244Z,88.07
2018-12-19T04:59:47.231Z,87.70
2018-12-19T05:00:47.222Z,89.04
2018-12-19T05:01:47.212Z,87.76
2018-12-19T05:02:47.219Z,87.97
2018-12-19T05:03:47.186Z,87.35
2018-12-19T05:04:47.173Z,87.24
2018-12-19T05:05:47.164Z,87.45
2018-12-19T05:06:47.169Z,87.35
2018-12-19T05:07:47.169Z,87.87
2018-12-19T05:08:47.129Z,87.87
2018-12-19T05:09:47.117Z,88.39
2018-12-19T05:10:47.108Z,88.28
2018-12-19T05:11:47.099Z,87.97
2018-12-19T05:12:47.122Z,87.87
2018-12-19T05:13:47.075Z,88.28
2018-12-19T05:14:47.063Z,88.07
2018-12-19T05:15:47.053Z,88.69
2018-12-19T05:16:47.041Z,87.24
2018-12-19T05:17:47.065Z,87.45
2018-12-19T05:18:47.042Z,88.39
2018-12-19T05:19:47.007Z,88.07
2018-12-19T05:20:46.996Z,87.87
2018-12-19T05:21:46.985Z,88.69
2018-12-19T05:22:46.996Z,88.55
2018-12-19T05:23:46.965Z,88.28
2018-12-19T05:24:46.964Z,89.17
2018-12-19T05:25:46.942Z,87.51
2018-12-19T05:26:46.930Z,88.24
2018-12-19T05:27:46.940Z,88.03
2018-12-19T05:28:46.915Z,87.99
2018-12-19T05:29:46.896Z,87.68
2018-12-19T05:30:46.901Z,87.57
2018-12-19T05:31:46.882Z,87.16
2018-12-19T05:32:46.890Z,87.47
2018-12-19T05:33:46.854Z,87.47
2018-12-19T05:34:46.845Z,87.47
2018-12-19T05:35:46.836Z,87.37
2018-12-19T05:36:46.842Z,87.57
2018-12-19T05:37:46.837Z,87.06
2018-12-19T05:38:46.796Z,87.06
2018-12-19T05:39:46.788Z,87.37
2018-12-19T05:40:46.780Z,87.78
2018-12-19T05:41:46.764Z,87.06
2018-12-19T05:42:46.907Z,87.47
2018-12-19T05:43:46.747Z,87.43
2018-12-19T05:44:46.731Z,87.16
2018-12-19T05:45:46.721Z,87.57
2018-12-19T05:46:46.710Z,88.20
2018-12-19T05:47:46.699Z,88.40
2018-12-19T05:48:46.719Z,87.27
2018-12-19T05:49:46.676Z,87.43
2018-12-19T05:50:46.665Z,87.78
2018-12-19T05:51:46.655Z,87.54
2018-12-19T05:52:46.646Z,87.64
2018-12-19T05:53:46.656Z,86.40
2018-12-19T05:54:46.629Z,87.54
2018-12-19T05:55:46.615Z,87.47
2018-12-19T05:56:46.599Z,87.54
2018-12-19T05:57:46.599Z,87.85
2018-12-19T05:58:46.606Z,87.23
2018-12-19T05:59:46.596Z,87.23
2018-12-19T06:00:46.560Z,87.33
2018-12-19T06:01:46.545Z,87.33
2018-12-19T06:02:46.557Z,87.43
2018-12-19T06:03:46.562Z,86.91
2018-12-19T06:04:46.518Z,87.57
2018-12-19T06:05:46.506Z,87.54
2018-12-19T06:06:46.498Z,87.43
2018-12-19T06:07:46.490Z,86.60
2018-12-19T06:08:46.497Z,87.64
2018-12-19T06:09:46.462Z,87.43
2018-12-19T06:10:46.448Z,86.71
2018-12-19T06:11:46.433Z,87.33
2018-12-19T06:12:46.428Z,87.23
2018-12-19T06:13:46.446Z,86.98
2018-12-19T06:14:46.401Z,86.98
2018-12-19T06:15:46.390Z,87.60
2018-12-19T06:16:46.377Z,86.36
2018-12-19T06:17:46.368Z,86.15
2018-12-19T06:18:46.464Z,86.36
2018-12-19T06:19:46.344Z,86.05
2018-12-19T06:20:46.334Z,86.60
2018-12-19T06:21:46.324Z,85.74
2018-12-19T06:22:46.312Z,86.91
2018-12-19T06:23:46.326Z,86.29
2018-12-19T06:24:46.296Z,87.70
2018-12-19T06:25:46.297Z,87.02
2018-12-19T06:26:46.274Z,86.36
2018-12-19T06:27:46.261Z,86.19
2018-12-19T06:28:46.274Z,86.36
2018-12-19T06:29:46.236Z,86.67
2018-12-19T06:30:46.226Z,86.15
2018-12-19T06:31:46.236Z,85.78
2018-12-19T06:32:46.204Z,86.25
2018-12-19T06:33:46.216Z,86.67
2018-12-19T06:34:46.183Z,86.36
2018-12-19T06:35:46.169Z,86.67
2018-12-19T06:36:46.158Z,86.36
2018-12-19T06:37:46.243Z,85.94
2018-12-19T06:38:46.608Z,86.46
2018-12-19T06:39:46.126Z,86.25
2018-12-19T06:40:46.125Z,86.11
2018-12-19T06:41:46.106Z,86.32
2018-12-19T06:42:46.094Z,85.39
2018-12-19T06:43:46.106Z,85.70
2018-12-19T06:44:46.087Z,86.73
2018-12-19T06:45:46.074Z,86.42
2018-12-19T06:46:46.048Z,86.01
2018-12-19T06:47:46.039Z,86.77
2018-12-19T06:48:46.056Z,86.32
2018-12-19T06:49:46.017Z,86.21
2018-12-19T06:50:46.014Z,86.63
2018-12-19T06:51:46.000Z,86.11
2018-12-19T06:52:45.996Z,86.01
2018-12-19T06:53:45.995Z,86.52
2018-12-19T06:54:45.961Z,86.11
2018-12-19T06:55:45.948Z,86.63
2018-12-19T06:56:45.939Z,86.11
2018-12-19T06:57:45.942Z,85.70
2018-12-19T06:58:45.939Z,86.46
2018-12-19T06:59:45.919Z,86.42
2018-12-19T07:00:45.896Z,85.39
2018-12-19T07:01:45.887Z,85.80
2018-12-19T07:02:45.875Z,86.73
2018-12-19T07:03:45.889Z,86.42
2018-12-19T07:04:45.874Z,86.42
2018-12-19T07:05:45.846Z,86.07
2018-12-19T07:06:45.847Z,85.60
2018-12-19T07:07:45.819Z,86.28
2018-12-19T07:08:45.831Z,85.97
2018-12-19T07:09:45.803Z,86.01
2018-12-19T07:10:45.792Z,86.18
2018-12-19T07:11:45.785Z,86.07
2018-12-19T07:12:45.778Z,85.18
2018-12-19T07:13:45.806Z,85.86
2018-12-19T07:14:46.359Z,86.07
2018-12-19T07:15:45.745Z,86.07
2018-12-19T07:16:45.726Z,84.83
2018-12-19T07:17:45.722Z,84.73
2018-12-19T07:18:45.722Z,84.94
2018-12-19T07:19:45.692Z,85.76
2018-12-19T07:20:45.710Z,86.18
2018-12-19T07:21:45.706Z,84.83
2018-12-19T07:22:45.696Z,86.38
2018-12-19T07:23:45.690Z,85.04
2018-12-19T07:24:45.689Z,85.04
2018-12-19T07:25:45.689Z,84.94
2018-12-19T07:26:45.639Z,85.86
2018-12-19T07:27:45.603Z,85.97
2018-12-19T07:28:45.675Z,86.07
2018-12-19T07:29:45.576Z,87.21
2018-12-19T07:30:45.567Z,85.66
2018-12-19T07:31:45.570Z,85.83
2018-12-19T07:32:45.561Z,85.55
2018-12-19T07:33:45.557Z,84.89
2018-12-19T07:34:45.542Z,85.97
2018-12-19T07:35:45.511Z,85.97
2018-12-19T07:36:45.513Z,85.55
2018-12-19T07:37:45.500Z,85.76
2018-12-19T07:38:45.523Z,86.28
2018-12-19T07:39:45.471Z,86.44
2018-12-19T07:40:45.919Z,85.10
2018-12-19T07:41:45.445Z,84.79
2018-12-19T07:42:45.436Z,85.31
2018-12-19T07:43:45.617Z,85.27
2018-12-19T07:44:45.429Z,85.62
2018-12-19T07:45:45.403Z,84.28
2018-12-19T07:46:45.390Z,84.17
2018-12-19T07:47:45.379Z,84.89
2018-12-19T07:48:45.401Z,85.86
2018-12-19T07:49:45.359Z,86.07
2018-12-19T07:50:45.350Z,86.07
2018-12-19T07:51:45.335Z,86.18
2018-12-19T07:52:45.326Z,86.13
2018-12-19T07:53:45.327Z,86.13
2018-12-19T07:54:45.477Z,85.21
2018-12-19T07:55:45.292Z,85.41
2018-12-19T07:56:45.282Z,84.89
2018-12-19T07:57:45.275Z,85.72
2018-12-19T07:58:45.265Z,85.00
2018-12-19T07:59:45.312Z,85.62
2018-12-19T08:00:45.247Z,86.24
2018-12-19T08:01:45.241Z,85.83
2018-12-19T08:02:45.246Z,85.52
2018-12-19T08:03:45.229Z,85.83
2018-12-19T08:04:45.300Z,85.62
2018-12-19T08:05:45.225Z,85.41
2018-12-19T08:06:45.172Z,86.10
2018-12-19T08:07:45.160Z,84.69
2018-12-19T08:08:45.149Z,86.13
2018-12-19T08:09:45.172Z,85.37
2018-12-19T08:10:45.201Z,85.27
2018-12-19T08:11:45.213Z,84.86
2018-12-19T08:12:45.158Z,84.34
2018-12-19T08:13:45.133Z,85.99
2018-12-19T08:14:45.219Z,85.06
2018-12-19T08:15:45.081Z,85.78
2018-12-19T08:16:45.101Z,85.02
2018-12-19T08:17:45.058Z,84.34
2018-12-19T08:18:45.041Z,84.44
2018-12-19T08:19:46.046Z,85.27
2018-12-19T08:20:45.014Z,84.72
2018-12-19T08:21:45.037Z,84.51
2018-12-19T08:22:44.994Z,84.41
2018-12-19T08:23:44.987Z,83.48
2018-12-19T08:24:44.993Z,84.51
2018-12-19T08:25:44.959Z,83.68
2018-12-19T08:26:44.956Z,84.20
2018-12-19T08:27:44.936Z,83.58
2018-12-19T08:28:44.927Z,84.61
2018-12-19T08:29:44.939Z,83.48
2018-12-19T08:30:44.919Z,84.51
2018-12-19T08:31:44.905Z,84.72
2018-12-19T08:32:44.881Z,84.92
2018-12-19T08:33:44.870Z,85.02
2018-12-19T08:34:44.883Z,84.57
2018-12-19T08:35:44.848Z,84.36
2018-12-19T08:36:44.860Z,84.06
2018-12-19T08:37:44.825Z,83.95
2018-12-19T08:38:44.816Z,84.16
2018-12-19T08:39:44.826Z,83.85
2018-12-19T08:40:44.791Z,83.75
2018-12-19T08:41:44.787Z,84.27
2018-12-19T08:42:44.782Z,84.81
2018-12-19T08:43:44.787Z,84.81
2018-12-19T08:44:44.778Z,85.95
2018-12-19T08:45:44.739Z,85.23
2018-12-19T08:46:44.727Z,84.81
2018-12-19T08:47:44.717Z,86.26
2018-12-19T08:48:44.713Z,85.85
2018-12-19T08:49:44.715Z,85.99
2018-12-19T08:50:44.681Z,86.20
2018-12-19T08:51:44.669Z,86.82
2018-12-19T08:52:44.659Z,87.02
2018-12-19T08:53:44.654Z,86.30
2018-12-19T08:54:44.675Z,87.02
2018-12-19T08:55:44.627Z,87.34
2018-12-19T08:56:44.613Z,87.40
2018-12-19T08:57:44.604Z,86.88
2018-12-19T08:58:44.592Z,86.88
2018-12-19T08:59:44.602Z,86.94
2018-12-19T09:00:44.595Z,86.68
2018-12-19T09:01:44.561Z,86.05
2018-12-19T09:02:44.547Z,86.47
2018-12-19T09:03:44.543Z,86.36
2018-12-19T09:04:44.608Z,86.12
2018-12-19T09:05:44.512Z,86.94
2018-12-19T09:06:44.506Z,86.43
2018-12-19T09:07:44.491Z,86.08
2018-12-19T09:08:44.494Z,86.32
2018-12-19T09:09:44.499Z,86.12
2018-12-19T09:10:44.463Z,86.74
2018-12-19T09:11:44.470Z,86.84
2018-12-19T09:12:44.444Z,86.60
2018-12-19T09:13:44.422Z,85.97
2018-12-19T09:14:44.449Z,85.77
2018-12-19T09:15:44.400Z,85.97
2018-12-19T09:16:44.415Z,85.77
2018-12-19T09:17:44.377Z,86.70
2018-12-19T09:18:44.379Z,86.08
2018-12-19T09:19:44.385Z,86.15
2018-12-19T09:20:44.350Z,86.08
2018-12-19T09:21:44.334Z,85.36
2018-12-19T09:22:44.332Z,85.91
2018-12-19T09:23:44.314Z,86.18
2018-12-19T09:24:44.326Z,86.35
2018-12-19T09:25:44.373Z,85.52
2018-12-19T09:26:44.285Z,85.42
2018-12-19T09:27:44.370Z,85.17
2018-12-19T09:28:44.331Z,84.80
2018-12-19T09:29:44.274Z,85.83
2018-12-19T09:30:44.372Z,85.42
2018-12-19T09:31:44.267Z,84.59
2018-12-19T09:32:44.218Z,85.63
2018-12-19T09:33:44.212Z,85.31
2018-12-19T09:34:44.316Z,85.83
2018-12-19T09:35:44.205Z,85.94
2018-12-19T09:36:44.166Z,85.17
2018-12-19T09:37:44.157Z,84.62
2018-12-19T09:38:44.171Z,85.03
2018-12-19T09:39:44.157Z,84.66
2018-12-19T09:40:44.121Z,84.62
2018-12-19T09:41:44.109Z,83.70
2018-12-19T09:42:44.098Z,84.00
2018-12-19T09:43:44.092Z,84.35
2018-12-19T09:44:44.100Z,85.17
2018-12-19T09:45:44.065Z,84.62
2018-12-19T09:46:44.062Z,85.24
2018-12-19T09:47:44.057Z,84.83
2018-12-19T09:48:44.034Z,83.80
2018-12-19T09:49:44.053Z,84.07
2018-12-19T09:50:44.015Z,84.52
2018-12-19T09:51:43.998Z,83.28
2018-12-19T09:52:43.998Z,84.11
2018-12-19T09:53:43.982Z,84.21
2018-12-19T09:54:43.965Z,83.86
2018-12-19T09:55:43.977Z,82.83
2018-12-19T09:56:43.976Z,83.45
2018-12-19T09:57:43.933Z,83.65
2018-12-19T09:58:43.926Z,83.35
2018-12-19T09:59:43.915Z,83.62
2018-12-19T10:00:43.922Z,83.31
2018-12-19T10:01:43.896Z,83.72
2018-12-19T10:02:43.885Z,83.31
2018-12-19T10:03:43.884Z,83.06
2018-12-19T10:04:43.856Z,83.41
2018-12-19T10:05:43.866Z,83.20
2018-12-19T10:06:43.834Z,83.41
2018-12-19T10:07:43.822Z,83.62
2018-12-19T10:08:43.826Z,82.86
2018-12-19T10:09:43.799Z,83.17
2018-12-19T10:10:43.814Z,82.86
2018-12-19T10:11:43.788Z,81.93
2018-12-19T10:12:43.794Z,83.51
2018-12-19T10:13:43.865Z,82.93
2018-12-19T10:14:43.822Z,83.20
2018-12-19T10:15:43.761Z,84.13
2018-12-19T10:16:43.727Z,83.31
2018-12-19T10:17:43.712Z,83.31
2018-12-19T10:18:43.700Z,83.68
2018-12-19T10:19:43.727Z,82.45
2018-12-19T10:20:43.701Z,83.17
2018-12-19T10:21:43.670Z,82.24
2018-12-19T10:22:43.655Z,83.23
2018-12-19T10:23:43.641Z,83.03
2018-12-19T10:24:43.643Z,81.69
2018-12-19T10:25:43.652Z,81.48
2018-12-19T10:26:43.611Z,82.00
2018-12-19T10:27:43.606Z,82.86
2018-12-19T10:28:43.587Z,82.45
2018-12-19T10:29:43.575Z,83.06
2018-12-19T10:30:43.585Z,82.04
2018-12-19T10:31:43.553Z,82.34
2018-12-19T10:32:43.604Z,81.69
2018-12-19T10:33:43.540Z,82.00
2018-12-19T10:34:43.540Z,81.38
2018-12-19T10:35:43.696Z,81.59
2018-12-19T10:36:43.501Z,81.79
2018-12-19T10:37:43.485Z,81.96
2018-12-19T10:38:43.475Z,81.24
2018-12-19T10:39:43.473Z,81.76
2018-12-19T10:40:43.505Z,81.34
2018-12-19T10:41:43.441Z,81.14
2018-12-19T10:42:43.430Z,81.45
2018-12-19T10:43:43.418Z,81.45
2018-12-19T10:44:43.408Z,81.34
2018-12-19T10:45:43.473Z,81.41
2018-12-19T10:46:43.392Z,81.45
2018-12-19T10:47:43.374Z,80.52
2018-12-19T10:48:43.361Z,81.24
2018-12-19T10:49:43.364Z,81.34
2018-12-19T10:50:43.379Z,81.30
2018-12-19T10:51:43.340Z,81.30
2018-12-19T10:52:43.326Z,80.79
2018-12-19T10:53:43.317Z,81.37
2018-12-19T10:54:43.319Z,79.97
2018-12-19T10:55:43.338Z,81.76
2018-12-19T10:56:43.317Z,81.24
2018-12-19T10:57:43.429Z,81.04
2018-12-19T10:58:43.405Z,81.34
2018-12-19T10:59:43.244Z,81.41
2018-12-19T11:00:43.258Z,81.24
2018-12-19T11:01:43.251Z,80.58
2018-12-19T11:02:43.465Z,79.97
2018-12-19T11:03:43.200Z,79.66
2018-12-19T11:04:43.236Z,79.56
2018-12-19T11:05:43.278Z,79.32
2018-12-19T11:06:43.182Z,79.32
2018-12-19T11:07:43.169Z,78.81
2018-12-19T11:08:43.145Z,78.25
2018-12-19T11:09:43.179Z,75.86
2018-12-19T11:10:43.173Z,74.53
2018-12-19T11:11:43.131Z,72.75
2018-12-19T11:12:43.111Z,72.48
2018-12-19T11:13:43.093Z,71.42
2018-12-19T11:14:43.101Z,71.09
2018-12-19T11:15:43.171Z,69.76
2018-12-19T11:16:43.091Z,68.26
2018-12-19T11:17:43.040Z,69.18
2018-12-19T11:18:43.028Z,68.13
2018-12-19T11:19:43.017Z,67.72
2018-12-19T11:20:43.054Z,67.29
2018-12-19T11:21:43.011Z,67.08
2018-12-19T11:22:43.020Z,66.13
2018-12-19T11:23:43.036Z,65.19
2018-12-19T11:24:42.995Z,65.72
2018-12-19T11:25:43.006Z,66.57
2018-12-19T11:26:42.975Z,66.64
2018-12-19T11:27:42.975Z,66.10
2018-12-19T11:28:42.978Z,65.42
2018-12-19T11:29:42.940Z,65.83
2018-12-19T11:30:43.525Z,65.19
2018-12-19T11:31:42.915Z,65.49
2018-12-19T11:32:42.926Z,65.31
2018-12-19T11:33:42.928Z,64.67
2018-12-19T11:34:42.934Z,64.37
2018-12-19T11:35:42.896Z,64.54
2018-12-19T11:36:42.930Z,63.46
2018-12-19T11:37:42.855Z,62.04
2018-12-19T11:38:42.959Z,62.85
2018-12-19T11:39:42.866Z,62.85
2018-12-19T11:40:42.806Z,63.93
2018-12-19T11:41:42.947Z,63.62
2018-12-19T11:42:42.870Z,63.01
2018-12-19T11:43:42.790Z,64.44
2018-12-19T11:44:42.772Z,63.32
2018-12-19T11:45:42.733Z,63.39
2018-12-19T11:46:43.195Z,63.09
2018-12-19T11:47:42.728Z,62.72
2018-12-19T11:48:42.806Z,61.98
2018-12-19T11:49:42.699Z,61.14
2018-12-19T11:50:42.707Z,60.86
2018-12-19T11:51:42.773Z,61.17
2018-12-19T11:52:42.682Z,60.91
2018-12-19T11:53:42.634Z,60.81
2018-12-19T11:54:43.935Z,60.07
2018-12-19T11:55:42.707Z,60.30
2018-12-19T11:56:42.624Z,59.79
2018-12-19T11:57:42.590Z,60.02
2018-12-19T11:58:42.585Z,60.46
2018-12-19T11:59:42.570Z,62.01
2018-12-19T12:00:42.556Z,60.76
2018-12-19T12:01:42.598Z,61.37
2018-12-19T12:02:42.550Z,60.20
2018-12-19T12:03:42.525Z,61.51
2018-12-19T12:04:42.525Z,61.71
2018-12-19T12:05:42.524Z,61.91
2018-12-19T12:06:42.515Z,61.60
2018-12-19T12:07:42.479Z,61.10
2018-12-19T12:08:42.469Z,61.47
2018-12-19T12:09:42.457Z,60.86
2018-12-19T12:10:42.473Z,60.83
2018-12-19T12:11:45.547Z,62.07
2018-12-19T12:12:42.426Z,63.12
2018-12-19T12:13:42.691Z,62.71
2018-12-19T12:14:42.468Z,61.74
2018-12-19T12:15:42.405Z,65.01
2018-12-19T12:16:42.434Z,66.50
2018-12-19T12:17:42.373Z,68.19
2018-12-19T12:18:42.504Z,68.57
2018-12-19T12:19:42.367Z,70.43
2018-12-19T12:20:42.366Z,71.97
2018-12-19T12:21:42.354Z,69.35
2018-12-19T12:22:42.317Z,67.32
2018-12-19T12:23:47.262Z,67.29
2018-12-19T12:24:43.323Z,67.52
2018-12-19T12:25:42.285Z,65.92
2018-12-19T12:26:42.289Z,67.01
2018-12-19T12:27:42.255Z,67.08
2018-12-19T12:28:42.273Z,65.19
2018-12-19T12:29:42.238Z,65.05
2018-12-19T12:30:42.221Z,64.34
2018-12-19T12:31:42.249Z,63.01
2018-12-19T12:32:42.215Z,62.88
2018-12-19T12:33:42.207Z,62.52
2018-12-19T12:34:42.289Z,65.49
2018-12-19T12:35:42.217Z,66.44
2018-12-19T12:36:42.180Z,67.82
2018-12-19T12:37:42.142Z,69.11
2018-12-19T12:38:42.138Z,69.69
2018-12-19T12:39:43.356Z,71.05
2018-12-19T12:40:42.112Z,72.17
2018-12-19T12:41:44.294Z,73.23
2018-12-19T12:42:42.090Z,72.96
2018-12-19T12:43:42.076Z,73.57
2018-12-19T12:44:45.230Z,75.04
2018-12-19T12:45:44.400Z,75.45
2018-12-19T12:46:42.072Z,75.93
2018-12-19T12:47:42.035Z,74.90
2018-12-19T12:48:42.021Z,75.04
2018-12-19T12:49:42.008Z,76.20
2018-12-19T12:50:42.014Z,77.12
2018-12-19T12:51:42.008Z,76.47
2018-12-19T12:52:41.981Z,76.72